sensor_id;sensor_type;location;lat;lon;timestamp;temperature;humidity
3312;DHT22;1668;49.648;8.570;2023-12-04T00:01:31;-2.10;99.90
3312;DHT22;1668;49.648;8.570;2023-12-04T00:04:00;-2.00;1.00
3312;DHT22;1668;49.648;8.570;2023-12-04T00:06:27;-2.10;1.00
3312;DHT22;1668;49.648;8.570;2023-12-04T00:08:54;-2.10;1.00
3312;DHT22;1668;49.648;8.570;2023-12-04T00:11:21;-2.10;99.90
3312;DHT22;1668;49.648;8.570;2023-12-04T00:13:47;-2.10;99.90
3312;DHT22;1668;49.648;8.570;2023-12-04T00:16:14;-2.10;99.90
3312;DHT22;1668;49.648;8.570;2023-12-04T00:18:41;-2.10;99.90
3312;DHT22;1668;49.648;8.570;2023-12-04T00:21:09;-2.10;1.00
3312;DHT22;1668;49.648;8.570;2023-12-04T00:23:36;-2.20;99.90
3312;DHT22;1668;49.648;8.570;2023-12-04T00:26:03;-2.20;1.00
3312;DHT22;1668;49.648;8.570;2023-12-04T00:28:31;-2.20;31.90
3312;DHT22;1668;49.648;8.570;2023-12-04T00:30:58;-2.20;1.00
3312;DHT22;1668;49.648;8.570;2023-12-04T00:33:25;-2.20;1.00
3312;DHT22;1668;49.648;8.570;2023-12-04T00:35:52;-2.30;1.00
3312;DHT22;1668;49.648;8.570;2023-12-04T00:38:20;-2.30;1.00
3312;DHT22;1668;49.648;8.570;2023-12-04T00:40:47;-2.30;21.80
3312;DHT22;1668;49.648;8.570;2023-12-04T00:43:13;-2.30;19.60
3312;DHT22;1668;49.648;8.570;2023-12-04T00:45:40;-2.30;1.00
3312;DHT22;1668;49.648;8.570;2023-12-04T00:48:07;-2.30;99.90
3312;DHT22;1668;49.648;8.570;2023-12-04T00:50:34;-2.30;99.90
3312;DHT22;1668;49.648;8.570;2023-12-04T00:53:01;-2.30;1.00
3312;DHT22;1668;49.648;8.570;2023-12-04T00:55:29;-2.30;1.00
3312;DHT22;1668;49.648;8.570;2023-12-04T00:57:56;-2.40;99.90
3312;DHT22;1668;49.648;8.570;2023-12-04T01:00:23;-2.40;99.90
3312;DHT22;1668;49.648;8.570;2023-12-04T01:02:50;-2.40;99.90
3312;DHT22;1668;49.648;8.570;2023-12-04T01:05:17;-2.40;99.90
3312;DHT22;1668;49.648;8.570;2023-12-04T01:07:44;-2.40;99.90
3312;DHT22;1668;49.648;8.570;2023-12-04T01:10:11;-2.40;99.90
3312;DHT22;1668;49.648;8.570;2023-12-04T01:12:39;-2.40;99.90
3312;DHT22;1668;49.648;8.570;2023-12-04T01:15:07;-2.40;99.90
3312;DHT22;1668;49.648;8.570;2023-12-04T01:17:34;-2.50;99.90
3312;DHT22;1668;49.648;8.570;2023-12-04T01:20:01;-2.50;99.90
3312;DHT22;1668;49.648;8.570;2023-12-04T01:22:28;-2.50;99.90
3312;DHT22;1668;49.648;8.570;2023-12-04T01:24:55;-2.50;99.90
3312;DHT22;1668;49.648;8.570;2023-12-04T01:27:21;-2.60;99.90
3312;DHT22;1668;49.648;8.570;2023-12-04T01:29:50;-2.50;99.90
3312;DHT22;1668;49.648;8.570;2023-12-04T01:32:16;-2.60;99.90
3312;DHT22;1668;49.648;8.570;2023-12-04T01:34:43;-2.50;99.90
3312;DHT22;1668;49.648;8.570;2023-12-04T01:37:10;-2.60;37.90
3312;DHT22;1668;49.648;8.570;2023-12-04T01:39:37;-2.60;1.00
3312;DHT22;1668;49.648;8.570;2023-12-04T01:42:04;-2.60;1.00
3312;DHT22;1668;49.648;8.570;2023-12-04T01:44:31;-2.60;1.00
3312;DHT22;1668;49.648;8.570;2023-12-04T01:46:59;-2.70;1.00
3312;DHT22;1668;49.648;8.570;2023-12-04T01:49:26;-2.70;99.90
3312;DHT22;1668;49.648;8.570;2023-12-04T01:51:54;-2.70;99.90
3312;DHT22;1668;49.648;8.570;2023-12-04T01:54:21;-2.70;99.90
3312;DHT22;1668;49.648;8.570;2023-12-04T01:56:48;-2.70;99.90
3312;DHT22;1668;49.648;8.570;2023-12-04T01:59:16;-2.70;99.90
3312;DHT22;1668;49.648;8.570;2023-12-04T02:01:43;-2.70;99.90
3312;DHT22;1668;49.648;8.570;2023-12-04T02:04:11;-2.80;99.90
3312;DHT22;1668;49.648;8.570;2023-12-04T02:06:40;-2.80;1.00
3312;DHT22;1668;49.648;8.570;2023-12-04T02:09:07;-2.80;1.00
3312;DHT22;1668;49.648;8.570;2023-12-04T02:11:37;-2.80;1.00
3312;DHT22;1668;49.648;8.570;2023-12-04T02:14:05;-2.80;1.00
3312;DHT22;1668;49.648;8.570;2023-12-04T02:16:38;-2.80;1.00
3312;DHT22;1668;49.648;8.570;2023-12-04T02:19:07;-2.80;1.00
3312;DHT22;1668;49.648;8.570;2023-12-04T02:21:35;-2.80;1.00
3312;DHT22;1668;49.648;8.570;2023-12-04T02:24:04;-2.80;99.90
3312;DHT22;1668;49.648;8.570;2023-12-04T02:26:34;-2.90;99.90
3312;DHT22;1668;49.648;8.570;2023-12-04T02:29:07;-2.90;99.90
3312;DHT22;1668;49.648;8.570;2023-12-04T02:31:35;-2.90;99.90
3312;DHT22;1668;49.648;8.570;2023-12-04T02:34:05;-2.90;99.90
3312;DHT22;1668;49.648;8.570;2023-12-04T02:36:34;-2.90;5.00
3312;DHT22;1668;49.648;8.570;2023-12-04T02:39:03;-2.90;99.90
3312;DHT22;1668;49.648;8.570;2023-12-04T02:41:31;-2.90;99.90
3312;DHT22;1668;49.648;8.570;2023-12-04T02:43:58;-2.90;1.00
3312;DHT22;1668;49.648;8.570;2023-12-04T02:46:25;-3.00;1.00
3312;DHT22;1668;49.648;8.570;2023-12-04T02:48:51;-3.00;1.00
3312;DHT22;1668;49.648;8.570;2023-12-04T02:51:18;-2.90;1.00
3312;DHT22;1668;49.648;8.570;2023-12-04T02:53:45;-3.00;1.00
3312;DHT22;1668;49.648;8.570;2023-12-04T02:56:13;-3.00;1.00
3312;DHT22;1668;49.648;8.570;2023-12-04T02:58:40;-3.00;99.90
3312;DHT22;1668;49.648;8.570;2023-12-04T03:01:07;-3.00;99.90
3312;DHT22;1668;49.648;8.570;2023-12-04T03:03:34;-3.00;99.90
3312;DHT22;1668;49.648;8.570;2023-12-04T03:06:01;-3.00;99.90
3312;DHT22;1668;49.648;8.570;2023-12-04T03:08:27;-3.00;99.90
3312;DHT22;1668;49.648;8.570;2023-12-04T03:10:54;-3.00;99.90
3312;DHT22;1668;49.648;8.570;2023-12-04T03:13:23;-3.00;99.90
3312;DHT22;1668;49.648;8.570;2023-12-04T03:15:49;-3.00;99.90
3312;DHT22;1668;49.648;8.570;2023-12-04T03:18:16;-3.00;99.90
3312;DHT22;1668;49.648;8.570;2023-12-04T03:20:43;-3.00;99.90
3312;DHT22;1668;49.648;8.570;2023-12-04T03:23:10;-3.00;99.90
3312;DHT22;1668;49.648;8.570;2023-12-04T03:25:37;-3.00;1.00
3312;DHT22;1668;49.648;8.570;2023-12-04T03:28:04;-3.00;1.00
3312;DHT22;1668;49.648;8.570;2023-12-04T03:30:32;-3.00;1.00
3312;DHT22;1668;49.648;8.570;2023-12-04T03:32:59;-3.00;1.00
3312;DHT22;1668;49.648;8.570;2023-12-04T03:35:26;-3.00;11.00
3312;DHT22;1668;49.648;8.570;2023-12-04T03:37:52;-2.90;99.90
3312;DHT22;1668;49.648;8.570;2023-12-04T03:40:20;-2.90;99.90
3312;DHT22;1668;49.648;8.570;2023-12-04T03:42:46;-2.90;99.90
3312;DHT22;1668;49.648;8.570;2023-12-04T03:45:13;-2.90;99.90
3312;DHT22;1668;49.648;8.570;2023-12-04T03:47:41;-2.90;99.90
3312;DHT22;1668;49.648;8.570;2023-12-04T03:50:09;-2.90;99.90
3312;DHT22;1668;49.648;8.570;2023-12-04T03:52:35;-2.90;99.90
3312;DHT22;1668;49.648;8.570;2023-12-04T03:55:03;-3.00;99.90
3312;DHT22;1668;49.648;8.570;2023-12-04T03:57:30;-3.00;99.90
3312;DHT22;1668;49.648;8.570;2023-12-04T03:59:57;-3.00;99.90
3312;DHT22;1668;49.648;8.570;2023-12-04T04:02:24;-3.00;99.90
3312;DHT22;1668;49.648;8.570;2023-12-04T04:04:52;-3.00;99.90
3312;DHT22;1668;49.648;8.570;2023-12-04T04:07:19;-3.00;99.90
3312;DHT22;1668;49.648;8.570;2023-12-04T04:09:46;-3.00;99.90
3312;DHT22;1668;49.648;8.570;2023-12-04T04:12:13;-3.00;99.90
3312;DHT22;1668;49.648;8.570;2023-12-04T04:14:40;-3.00;99.90
3312;DHT22;1668;49.648;8.570;2023-12-04T04:17:07;-3.00;99.90
3312;DHT22;1668;49.648;8.570;2023-12-04T04:19:33;-3.00;99.90
3312;DHT22;1668;49.648;8.570;2023-12-04T04:22:02;-3.00;99.90
3312;DHT22;1668;49.648;8.570;2023-12-04T04:24:29;-3.00;1.00
3312;DHT22;1668;49.648;8.570;2023-12-04T04:26:56;-3.00;1.00
3312;DHT22;1668;49.648;8.570;2023-12-04T04:29:22;-3.00;1.00
3312;DHT22;1668;49.648;8.570;2023-12-04T04:31:50;-3.00;99.90
3312;DHT22;1668;49.648;8.570;2023-12-04T04:34:16;-3.00;99.90
3312;DHT22;1668;49.648;8.570;2023-12-04T04:36:43;-3.00;99.90
3312;DHT22;1668;49.648;8.570;2023-12-04T04:39:12;-3.00;99.90
3312;DHT22;1668;49.648;8.570;2023-12-04T04:41:40;-3.00;99.90
3312;DHT22;1668;49.648;8.570;2023-12-04T04:44:07;-3.00;99.90
3312;DHT22;1668;49.648;8.570;2023-12-04T04:46:33;-3.00;99.90
3312;DHT22;1668;49.648;8.570;2023-12-04T04:49:00;-3.00;99.90
3312;DHT22;1668;49.648;8.570;2023-12-04T04:51:28;-3.00;99.90
3312;DHT22;1668;49.648;8.570;2023-12-04T04:53:55;-3.00;99.90
3312;DHT22;1668;49.648;8.570;2023-12-04T04:56:23;-3.00;99.90
3312;DHT22;1668;49.648;8.570;2023-12-04T04:58:50;-3.10;99.90
3312;DHT22;1668;49.648;8.570;2023-12-04T05:01:17;-3.00;99.90
3312;DHT22;1668;49.648;8.570;2023-12-04T05:03:44;-3.10;1.00
3312;DHT22;1668;49.648;8.570;2023-12-04T05:06:11;-3.10;99.90
3312;DHT22;1668;49.648;8.570;2023-12-04T05:08:38;-3.10;1.00
3312;DHT22;1668;49.648;8.570;2023-12-04T05:11:05;-3.10;1.00
3312;DHT22;1668;49.648;8.570;2023-12-04T05:13:34;-3.10;1.00
3312;DHT22;1668;49.648;8.570;2023-12-04T05:16:00;-3.10;1.00
3312;DHT22;1668;49.648;8.570;2023-12-04T05:18:27;-3.10;1.00
3312;DHT22;1668;49.648;8.570;2023-12-04T05:20:54;-3.10;1.00
3312;DHT22;1668;49.648;8.570;2023-12-04T05:23:21;-3.00;1.00
3312;DHT22;1668;49.648;8.570;2023-12-04T05:25:48;-3.10;1.00
3312;DHT22;1668;49.648;8.570;2023-12-04T05:28:15;-3.10;1.00
3312;DHT22;1668;49.648;8.570;2023-12-04T05:30:43;-3.10;1.00
3312;DHT22;1668;49.648;8.570;2023-12-04T05:33:10;-3.10;1.00
3312;DHT22;1668;49.648;8.570;2023-12-04T05:35:38;-3.10;1.00
3312;DHT22;1668;49.648;8.570;2023-12-04T05:38:05;-3.10;1.00
3312;DHT22;1668;49.648;8.570;2023-12-04T05:40:33;-3.10;1.00
3312;DHT22;1668;49.648;8.570;2023-12-04T05:43:00;-3.10;1.00
3312;DHT22;1668;49.648;8.570;2023-12-04T05:45:27;-3.10;1.00
3312;DHT22;1668;49.648;8.570;2023-12-04T05:47:55;-3.10;1.00
3312;DHT22;1668;49.648;8.570;2023-12-04T05:50:22;-3.10;1.00
3312;DHT22;1668;49.648;8.570;2023-12-04T05:52:50;-3.10;1.00
3312;DHT22;1668;49.648;8.570;2023-12-04T05:55:17;-3.20;1.00
3312;DHT22;1668;49.648;8.570;2023-12-04T05:57:45;-3.10;1.00
3312;DHT22;1668;49.648;8.570;2023-12-04T06:00:13;-3.10;1.00
3312;DHT22;1668;49.648;8.570;2023-12-04T06:02:41;-3.10;1.00
3312;DHT22;1668;49.648;8.570;2023-12-04T06:05:10;-3.10;1.00
3312;DHT22;1668;49.648;8.570;2023-12-04T06:07:37;-3.10;1.00
3312;DHT22;1668;49.648;8.570;2023-12-04T06:10:05;-3.20;1.00
3312;DHT22;1668;49.648;8.570;2023-12-04T06:12:32;-3.30;1.00
3312;DHT22;1668;49.648;8.570;2023-12-04T06:14:59;-3.30;1.00
3312;DHT22;1668;49.648;8.570;2023-12-04T06:17:26;-3.30;1.00
3312;DHT22;1668;49.648;8.570;2023-12-04T06:19:53;-3.30;1.00
3312;DHT22;1668;49.648;8.570;2023-12-04T06:22:22;-3.30;1.00
3312;DHT22;1668;49.648;8.570;2023-12-04T06:24:49;-3.30;1.00
3312;DHT22;1668;49.648;8.570;2023-12-04T06:27:18;-3.20;1.00
3312;DHT22;1668;49.648;8.570;2023-12-04T06:29:46;-3.20;1.00
3312;DHT22;1668;49.648;8.570;2023-12-04T06:32:15;-3.20;9.70
3312;DHT22;1668;49.648;8.570;2023-12-04T06:34:42;-3.20;40.80
3312;DHT22;1668;49.648;8.570;2023-12-04T06:37:10;-3.20;66.70
3312;DHT22;1668;49.648;8.570;2023-12-04T06:39:39;-3.20;74.20
3312;DHT22;1668;49.648;8.570;2023-12-04T06:42:08;-3.20;81.10
3312;DHT22;1668;49.648;8.570;2023-12-04T06:44:35;-3.30;87.90
3312;DHT22;1668;49.648;8.570;2023-12-04T06:47:03;-3.30;92.40
3312;DHT22;1668;49.648;8.570;2023-12-04T06:49:31;-3.30;91.90
3312;DHT22;1668;49.648;8.570;2023-12-04T06:51:59;-3.30;92.10
3312;DHT22;1668;49.648;8.570;2023-12-04T06:54:27;-3.30;98.20
3312;DHT22;1668;49.648;8.570;2023-12-04T06:56:55;-3.30;99.90
3312;DHT22;1668;49.648;8.570;2023-12-04T06:59:22;-3.30;99.90
3312;DHT22;1668;49.648;8.570;2023-12-04T07:01:49;-3.20;99.90
3312;DHT22;1668;49.648;8.570;2023-12-04T07:04:16;-3.20;99.90
3312;DHT22;1668;49.648;8.570;2023-12-04T07:06:46;-3.20;99.90
3312;DHT22;1668;49.648;8.570;2023-12-04T07:09:14;-3.20;99.90
3312;DHT22;1668;49.648;8.570;2023-12-04T07:11:42;-3.10;99.90
3312;DHT22;1668;49.648;8.570;2023-12-04T07:14:11;-3.20;99.90
3312;DHT22;1668;49.648;8.570;2023-12-04T07:16:39;-3.10;99.90
3312;DHT22;1668;49.648;8.570;2023-12-04T07:19:07;-3.20;99.90
3312;DHT22;1668;49.648;8.570;2023-12-04T07:21:33;-3.20;99.90
3312;DHT22;1668;49.648;8.570;2023-12-04T07:24:00;-3.20;99.90
3312;DHT22;1668;49.648;8.570;2023-12-04T07:26:27;-3.20;99.90
3312;DHT22;1668;49.648;8.570;2023-12-04T07:28:54;-3.20;99.90
3312;DHT22;1668;49.648;8.570;2023-12-04T07:31:22;-3.10;99.90
3312;DHT22;1668;49.648;8.570;2023-12-04T07:33:49;-3.20;99.90
3312;DHT22;1668;49.648;8.570;2023-12-04T07:36:16;-3.20;99.90
3312;DHT22;1668;49.648;8.570;2023-12-04T07:38:43;-3.10;99.90
3312;DHT22;1668;49.648;8.570;2023-12-04T07:41:10;-3.10;99.90
3312;DHT22;1668;49.648;8.570;2023-12-04T07:43:37;-3.10;99.90
3312;DHT22;1668;49.648;8.570;2023-12-04T07:46:04;-3.10;99.90
3312;DHT22;1668;49.648;8.570;2023-12-04T07:48:31;-3.00;99.90
3312;DHT22;1668;49.648;8.570;2023-12-04T07:50:58;-3.00;99.90
3312;DHT22;1668;49.648;8.570;2023-12-04T07:53:25;-3.00;99.90
3312;DHT22;1668;49.648;8.570;2023-12-04T07:55:52;-3.00;99.90
3312;DHT22;1668;49.648;8.570;2023-12-04T07:58:19;-3.00;99.90
3312;DHT22;1668;49.648;8.570;2023-12-04T08:00:47;-3.00;99.90
3312;DHT22;1668;49.648;8.570;2023-12-04T08:03:14;-2.90;99.90
3312;DHT22;1668;49.648;8.570;2023-12-04T08:05:42;-2.90;99.90
3312;DHT22;1668;49.648;8.570;2023-12-04T08:08:09;-2.90;99.90
3312;DHT22;1668;49.648;8.570;2023-12-04T08:10:36;-2.90;99.90
3312;DHT22;1668;49.648;8.570;2023-12-04T08:13:03;-2.90;99.90
3312;DHT22;1668;49.648;8.570;2023-12-04T08:15:30;-2.80;99.90
3312;DHT22;1668;49.648;8.570;2023-12-04T08:17:57;-2.80;99.90
3312;DHT22;1668;49.648;8.570;2023-12-04T08:20:25;-2.80;99.90
3312;DHT22;1668;49.648;8.570;2023-12-04T08:22:53;-2.80;99.90
3312;DHT22;1668;49.648;8.570;2023-12-04T08:25:21;-2.70;99.90
3312;DHT22;1668;49.648;8.570;2023-12-04T08:27:48;-2.70;99.90
3312;DHT22;1668;49.648;8.570;2023-12-04T08:30:16;-2.70;99.90
3312;DHT22;1668;49.648;8.570;2023-12-04T08:32:43;-2.70;99.90
3312;DHT22;1668;49.648;8.570;2023-12-04T08:35:10;-2.60;99.90
3312;DHT22;1668;49.648;8.570;2023-12-04T08:37:37;-2.60;99.90
3312;DHT22;1668;49.648;8.570;2023-12-04T08:40:09;-2.60;99.90
3312;DHT22;1668;49.648;8.570;2023-12-04T08:42:36;-2.60;99.90
3312;DHT22;1668;49.648;8.570;2023-12-04T08:45:03;-2.60;99.90
3312;DHT22;1668;49.648;8.570;2023-12-04T08:47:32;-2.50;99.90
3312;DHT22;1668;49.648;8.570;2023-12-04T08:50:00;-2.50;99.90
3312;DHT22;1668;49.648;8.570;2023-12-04T08:52:27;-2.40;99.90
3312;DHT22;1668;49.648;8.570;2023-12-04T08:54:54;-2.40;99.90
3312;DHT22;1668;49.648;8.570;2023-12-04T08:57:22;-2.30;99.90
3312;DHT22;1668;49.648;8.570;2023-12-04T08:59:49;-2.30;99.90
3312;DHT22;1668;49.648;8.570;2023-12-04T09:02:16;-2.20;99.90
3312;DHT22;1668;49.648;8.570;2023-12-04T09:04:43;-2.20;99.90
3312;DHT22;1668;49.648;8.570;2023-12-04T09:07:10;-2.20;99.90
3312;DHT22;1668;49.648;8.570;2023-12-04T09:09:37;-2.10;99.90
3312;DHT22;1668;49.648;8.570;2023-12-04T09:12:04;-2.10;99.90
3312;DHT22;1668;49.648;8.570;2023-12-04T09:14:35;-2.10;99.90
3312;DHT22;1668;49.648;8.570;2023-12-04T09:17:02;-2.00;99.90
3312;DHT22;1668;49.648;8.570;2023-12-04T09:19:30;-2.00;99.90
3312;DHT22;1668;49.648;8.570;2023-12-04T09:21:57;-2.00;99.90
3312;DHT22;1668;49.648;8.570;2023-12-04T09:24:24;-1.90;99.90
3312;DHT22;1668;49.648;8.570;2023-12-04T09:26:51;-1.90;99.90
3312;DHT22;1668;49.648;8.570;2023-12-04T09:29:18;-1.90;99.90
3312;DHT22;1668;49.648;8.570;2023-12-04T09:31:51;-1.90;99.90
3312;DHT22;1668;49.648;8.570;2023-12-04T09:34:18;-1.80;99.90
3312;DHT22;1668;49.648;8.570;2023-12-04T09:36:45;-1.80;99.90
3312;DHT22;1668;49.648;8.570;2023-12-04T09:39:13;-1.80;99.90
3312;DHT22;1668;49.648;8.570;2023-12-04T09:41:42;-1.80;99.90
3312;DHT22;1668;49.648;8.570;2023-12-04T09:44:09;-1.80;86.50
3312;DHT22;1668;49.648;8.570;2023-12-04T09:46:36;-1.70;71.40
3312;DHT22;1668;49.648;8.570;2023-12-04T09:49:05;-1.70;49.80
3312;DHT22;1668;49.648;8.570;2023-12-04T09:51:33;-1.70;17.50
3312;DHT22;1668;49.648;8.570;2023-12-04T09:54:02;-1.70;6.20
3312;DHT22;1668;49.648;8.570;2023-12-04T09:56:30;-1.70;1.00
3312;DHT22;1668;49.648;8.570;2023-12-04T09:59:00;-1.70;1.00
3312;DHT22;1668;49.648;8.570;2023-12-04T10:01:28;-1.60;1.00
3312;DHT22;1668;49.648;8.570;2023-12-04T10:03:56;-1.60;1.00
3312;DHT22;1668;49.648;8.570;2023-12-04T10:06:26;-1.60;1.00
3312;DHT22;1668;49.648;8.570;2023-12-04T10:08:55;-1.60;2.90
3312;DHT22;1668;49.648;8.570;2023-12-04T10:11:23;-1.50;21.90
3312;DHT22;1668;49.648;8.570;2023-12-04T10:13:50;-1.50;27.90
3312;DHT22;1668;49.648;8.570;2023-12-04T10:16:31;-1.50;43.00
3312;DHT22;1668;49.648;8.570;2023-12-04T10:19:14;-1.50;47.90
3312;DHT22;1668;49.648;8.570;2023-12-04T10:21:43;-1.60;66.50
3312;DHT22;1668;49.648;8.570;2023-12-04T10:24:10;-1.50;65.10
3312;DHT22;1668;49.648;8.570;2023-12-04T10:26:37;-1.50;34.50
3312;DHT22;1668;49.648;8.570;2023-12-04T10:29:04;-1.50;25.30
3312;DHT22;1668;49.648;8.570;2023-12-04T10:31:35;-1.40;47.50
3312;DHT22;1668;49.648;8.570;2023-12-04T10:34:02;-1.40;52.70
3312;DHT22;1668;49.648;8.570;2023-12-04T10:36:30;-1.40;39.60
3312;DHT22;1668;49.648;8.570;2023-12-04T10:39:01;-1.30;31.30
3312;DHT22;1668;49.648;8.570;2023-12-04T10:41:30;-1.30;8.20
3312;DHT22;1668;49.648;8.570;2023-12-04T10:43:57;-1.30;6.80
3312;DHT22;1668;49.648;8.570;2023-12-04T10:46:26;-1.30;10.10
3312;DHT22;1668;49.648;8.570;2023-12-04T10:48:53;-1.30;1.00
3312;DHT22;1668;49.648;8.570;2023-12-04T10:51:20;-1.30;1.00
3312;DHT22;1668;49.648;8.570;2023-12-04T10:53:48;-1.30;1.00
3312;DHT22;1668;49.648;8.570;2023-12-04T10:56:19;-1.30;1.00
3312;DHT22;1668;49.648;8.570;2023-12-04T10:58:53;-1.30;12.20
3312;DHT22;1668;49.648;8.570;2023-12-04T11:01:22;-1.20;49.20
3312;DHT22;1668;49.648;8.570;2023-12-04T11:03:52;-1.30;52.40
3312;DHT22;1668;49.648;8.570;2023-12-04T11:06:21;-1.30;80.60
3312;DHT22;1668;49.648;8.570;2023-12-04T11:08:53;-1.30;90.70
3312;DHT22;1668;49.648;8.570;2023-12-04T11:11:27;-1.30;99.90
3312;DHT22;1668;49.648;8.570;2023-12-04T11:14:00;-1.30;99.90
3312;DHT22;1668;49.648;8.570;2023-12-04T11:16:33;-1.30;99.90
3312;DHT22;1668;49.648;8.570;2023-12-04T11:19:06;-1.20;99.90
3312;DHT22;1668;49.648;8.570;2023-12-04T11:21:37;-1.20;99.90
3312;DHT22;1668;49.648;8.570;2023-12-04T11:24:05;-1.10;99.90
3312;DHT22;1668;49.648;8.570;2023-12-04T11:26:34;-1.20;99.90
3312;DHT22;1668;49.648;8.570;2023-12-04T11:29:02;-1.20;99.90
3312;DHT22;1668;49.648;8.570;2023-12-04T11:31:31;-1.20;99.90
3312;DHT22;1668;49.648;8.570;2023-12-04T11:34:01;-1.20;99.90
3312;DHT22;1668;49.648;8.570;2023-12-04T11:36:28;-1.20;99.90
3312;DHT22;1668;49.648;8.570;2023-12-04T11:38:55;-1.20;99.90
3312;DHT22;1668;49.648;8.570;2023-12-04T11:41:24;-1.20;99.90
3312;DHT22;1668;49.648;8.570;2023-12-04T11:43:54;-1.10;99.90
3312;DHT22;1668;49.648;8.570;2023-12-04T11:46:23;-1.10;99.90
3312;DHT22;1668;49.648;8.570;2023-12-04T11:48:51;-1.10;99.90
3312;DHT22;1668;49.648;8.570;2023-12-04T11:51:47;-1.00;99.90
3312;DHT22;1668;49.648;8.570;2023-12-04T11:54:18;-1.00;99.90
3312;DHT22;1668;49.648;8.570;2023-12-04T11:56:57;-1.00;99.90
3312;DHT22;1668;49.648;8.570;2023-12-04T11:59:26;-1.00;99.90
3312;DHT22;1668;49.648;8.570;2023-12-04T12:01:54;-1.00;99.90
3312;DHT22;1668;49.648;8.570;2023-12-04T12:04:22;-1.00;99.90
3312;DHT22;1668;49.648;8.570;2023-12-04T12:06:50;-0.90;99.90
3312;DHT22;1668;49.648;8.570;2023-12-04T12:09:17;-0.90;99.90
3312;DHT22;1668;49.648;8.570;2023-12-04T12:11:44;-0.90;99.90
3312;DHT22;1668;49.648;8.570;2023-12-04T12:14:12;-0.90;99.90
3312;DHT22;1668;49.648;8.570;2023-12-04T12:16:40;-0.90;99.90
3312;DHT22;1668;49.648;8.570;2023-12-04T12:19:08;-0.90;99.90
3312;DHT22;1668;49.648;8.570;2023-12-04T12:21:36;-0.90;99.90
3312;DHT22;1668;49.648;8.570;2023-12-04T12:24:03;-0.80;99.90
3312;DHT22;1668;49.648;8.570;2023-12-04T12:26:32;-0.80;99.90
3312;DHT22;1668;49.648;8.570;2023-12-04T12:28:59;-0.80;99.90
3312;DHT22;1668;49.648;8.570;2023-12-04T12:31:26;-0.80;99.90
3312;DHT22;1668;49.648;8.570;2023-12-04T12:33:55;-0.70;99.90
3312;DHT22;1668;49.648;8.570;2023-12-04T12:36:22;-0.70;99.90
3312;DHT22;1668;49.648;8.570;2023-12-04T12:38:49;-0.70;99.90
3312;DHT22;1668;49.648;8.570;2023-12-04T12:41:16;-0.70;99.90
3312;DHT22;1668;49.648;8.570;2023-12-04T12:43:43;-0.70;99.90
3312;DHT22;1668;49.648;8.570;2023-12-04T12:46:10;-0.70;99.90
3312;DHT22;1668;49.648;8.570;2023-12-04T12:48:37;-0.70;99.90
3312;DHT22;1668;49.648;8.570;2023-12-04T12:51:07;-0.70;99.90
3312;DHT22;1668;49.648;8.570;2023-12-04T12:53:36;-0.70;99.90
3312;DHT22;1668;49.648;8.570;2023-12-04T12:56:04;-0.70;99.90
3312;DHT22;1668;49.648;8.570;2023-12-04T12:58:32;-0.70;99.90
3312;DHT22;1668;49.648;8.570;2023-12-04T13:01:00;-0.70;99.90
3312;DHT22;1668;49.648;8.570;2023-12-04T13:03:28;-0.70;99.90
3312;DHT22;1668;49.648;8.570;2023-12-04T13:05:56;-0.70;99.90
3312;DHT22;1668;49.648;8.570;2023-12-04T13:08:24;-0.60;99.90
3312;DHT22;1668;49.648;8.570;2023-12-04T13:10:52;-0.60;99.90
3312;DHT22;1668;49.648;8.570;2023-12-04T13:13:19;-0.60;99.90
3312;DHT22;1668;49.648;8.570;2023-12-04T13:15:46;-0.60;99.90
3312;DHT22;1668;49.648;8.570;2023-12-04T13:18:13;-0.60;99.90
3312;DHT22;1668;49.648;8.570;2023-12-04T13:20:40;-0.60;99.90
3312;DHT22;1668;49.648;8.570;2023-12-04T13:23:08;-0.60;99.90
3312;DHT22;1668;49.648;8.570;2023-12-04T13:25:37;-0.50;99.90
3312;DHT22;1668;49.648;8.570;2023-12-04T13:28:04;-0.50;99.90
3312;DHT22;1668;49.648;8.570;2023-12-04T13:30:31;-0.50;99.90
3312;DHT22;1668;49.648;8.570;2023-12-04T13:33:00;-0.40;99.90
3312;DHT22;1668;49.648;8.570;2023-12-04T13:35:28;-0.40;99.90
3312;DHT22;1668;49.648;8.570;2023-12-04T13:37:55;-0.40;99.90
3312;DHT22;1668;49.648;8.570;2023-12-04T13:40:24;-0.40;99.90
3312;DHT22;1668;49.648;8.570;2023-12-04T13:42:55;-0.40;99.90
3312;DHT22;1668;49.648;8.570;2023-12-04T13:45:39;-0.40;99.90
3312;DHT22;1668;49.648;8.570;2023-12-04T13:48:06;-0.30;99.90
3312;DHT22;1668;49.648;8.570;2023-12-04T13:50:33;-0.40;99.90
3312;DHT22;1668;49.648;8.570;2023-12-04T13:53:00;-0.40;99.90
3312;DHT22;1668;49.648;8.570;2023-12-04T13:55:27;-0.30;99.90
3312;DHT22;1668;49.648;8.570;2023-12-04T13:58:14;-0.30;99.90
3312;DHT22;1668;49.648;8.570;2023-12-04T14:00:55;-0.40;99.90
3312;DHT22;1668;49.648;8.570;2023-12-04T14:03:22;-0.40;99.90
3312;DHT22;1668;49.648;8.570;2023-12-04T14:05:50;-0.30;99.90
3312;DHT22;1668;49.648;8.570;2023-12-04T14:08:17;-0.40;99.90
3312;DHT22;1668;49.648;8.570;2023-12-04T14:10:44;-0.40;99.90
3312;DHT22;1668;49.648;8.570;2023-12-04T14:13:11;-0.40;99.90
3312;DHT22;1668;49.648;8.570;2023-12-04T14:15:39;-0.40;99.90
3312;DHT22;1668;49.648;8.570;2023-12-04T14:18:06;-0.40;99.90
3312;DHT22;1668;49.648;8.570;2023-12-04T14:20:33;-0.40;99.90
3312;DHT22;1668;49.648;8.570;2023-12-04T14:23:00;-0.40;99.90
3312;DHT22;1668;49.648;8.570;2023-12-04T14:25:27;-0.40;99.90
3312;DHT22;1668;49.648;8.570;2023-12-04T14:27:54;-0.30;99.90
3312;DHT22;1668;49.648;8.570;2023-12-04T14:30:21;-0.30;99.90
3312;DHT22;1668;49.648;8.570;2023-12-04T14:32:49;-0.30;99.90
3312;DHT22;1668;49.648;8.570;2023-12-04T14:35:16;-0.30;99.90
3312;DHT22;1668;49.648;8.570;2023-12-04T14:37:43;-0.40;99.90
3312;DHT22;1668;49.648;8.570;2023-12-04T14:40:12;-0.30;99.90
3312;DHT22;1668;49.648;8.570;2023-12-04T14:42:39;-0.30;99.90
3312;DHT22;1668;49.648;8.570;2023-12-04T14:45:07;-0.40;99.90
3312;DHT22;1668;49.648;8.570;2023-12-04T14:47:34;-0.40;99.90
3312;DHT22;1668;49.648;8.570;2023-12-04T14:50:04;-0.40;99.90
3312;DHT22;1668;49.648;8.570;2023-12-04T14:52:32;-0.40;99.90
3312;DHT22;1668;49.648;8.570;2023-12-04T14:55:00;-0.40;99.90
3312;DHT22;1668;49.648;8.570;2023-12-04T14:57:55;-0.40;99.90
3312;DHT22;1668;49.648;8.570;2023-12-04T15:00:48;-0.40;99.90
3312;DHT22;1668;49.648;8.570;2023-12-04T15:03:28;-0.40;99.90
3312;DHT22;1668;49.648;8.570;2023-12-04T15:06:19;-0.40;99.90
3312;DHT22;1668;49.648;8.570;2023-12-04T15:09:05;-0.40;99.90
3312;DHT22;1668;49.648;8.570;2023-12-04T15:11:50;-0.40;99.90
3312;DHT22;1668;49.648;8.570;2023-12-04T15:14:41;-0.40;99.90
3312;DHT22;1668;49.648;8.570;2023-12-04T15:17:15;-0.40;99.90
3312;DHT22;1668;49.648;8.570;2023-12-04T15:19:56;-0.40;99.90
3312;DHT22;1668;49.648;8.570;2023-12-04T15:22:47;-0.40;99.90
3312;DHT22;1668;49.648;8.570;2023-12-04T15:25:14;-0.40;99.90
3312;DHT22;1668;49.648;8.570;2023-12-04T15:27:40;-0.40;99.90
3312;DHT22;1668;49.648;8.570;2023-12-04T15:30:08;-0.40;99.90
3312;DHT22;1668;49.648;8.570;2023-12-04T15:32:34;-0.40;99.90
3312;DHT22;1668;49.648;8.570;2023-12-04T15:35:01;-0.40;99.90
3312;DHT22;1668;49.648;8.570;2023-12-04T15:37:27;-0.40;99.90
3312;DHT22;1668;49.648;8.570;2023-12-04T15:39:55;-0.40;99.90
3312;DHT22;1668;49.648;8.570;2023-12-04T15:42:21;-0.30;99.90
3312;DHT22;1668;49.648;8.570;2023-12-04T15:44:48;-0.40;99.90
3312;DHT22;1668;49.648;8.570;2023-12-04T15:47:14;-0.40;99.90
3312;DHT22;1668;49.648;8.570;2023-12-04T15:49:41;-0.40;99.90
3312;DHT22;1668;49.648;8.570;2023-12-04T15:52:07;-0.40;99.90
3312;DHT22;1668;49.648;8.570;2023-12-04T15:54:34;-0.40;99.90
3312;DHT22;1668;49.648;8.570;2023-12-04T15:57:01;-0.40;99.90
3312;DHT22;1668;49.648;8.570;2023-12-04T15:59:29;-0.30;99.90
3312;DHT22;1668;49.648;8.570;2023-12-04T16:01:55;-0.30;99.90
3312;DHT22;1668;49.648;8.570;2023-12-04T16:04:22;-0.30;99.90
3312;DHT22;1668;49.648;8.570;2023-12-04T16:06:49;-0.30;99.90
3312;DHT22;1668;49.648;8.570;2023-12-04T16:09:16;-0.30;99.90
3312;DHT22;1668;49.648;8.570;2023-12-04T16:11:43;-0.30;99.90